sensor_id;sensor_type;location;lat;lon;timestamp;P1;durP1;ratioP1;P2;durP2;ratioP2
15293;SDS011;7748;52.474;13.454;2023-02-08T00:01:05;41.88;;;23.73;;
15293;SDS011;7748;52.474;13.454;2023-02-08T00:03:34;49.08;;;27.02;;
15293;SDS011;7748;52.474;13.454;2023-02-08T00:06:02;42.60;;;25.17;;
15293;SDS011;7748;52.474;13.454;2023-02-08T00:08:31;46.50;;;25.35;;
15293;SDS011;7748;52.474;13.454;2023-02-08T00:11:00;46.80;;;26.10;;
15293;SDS011;7748;52.474;13.454;2023-02-08T00:13:29;46.63;;;26.02;;
15293;SDS011;7748;52.474;13.454;2023-02-08T00:15:57;40.92;;;24.25;;
15293;SDS011;7748;52.474;13.454;2023-02-08T00:18:25;40.45;;;26.13;;
15293;SDS011;7748;52.474;13.454;2023-02-08T00:20:53;50.28;;;26.00;;
15293;SDS011;7748;52.474;13.454;2023-02-08T00:23:22;49.13;;;26.02;;
15293;SDS011;7748;52.474;13.454;2023-02-08T00:25:50;53.75;;;26.15;;
15293;SDS011;7748;52.474;13.454;2023-02-08T00:28:18;48.70;;;26.75;;
15293;SDS011;7748;52.474;13.454;2023-02-08T00:30:48;44.00;;;23.67;;
15293;SDS011;7748;52.474;13.454;2023-02-08T00:33:15;46.72;;;24.90;;
15293;SDS011;7748;52.474;13.454;2023-02-08T00:35:43;56.83;;;26.92;;
15293;SDS011;7748;52.474;13.454;2023-02-08T00:38:11;50.70;;;26.67;;
15293;SDS011;7748;52.474;13.454;2023-02-08T00:40:39;42.95;;;25.85;;
15293;SDS011;7748;52.474;13.454;2023-02-08T00:43:07;54.20;;;28.95;;
15293;SDS011;7748;52.474;13.454;2023-02-08T00:45:35;54.50;;;26.65;;
15293;SDS011;7748;52.474;13.454;2023-02-08T00:48:04;47.58;;;27.42;;
15293;SDS011;7748;52.474;13.454;2023-02-08T00:50:32;45.40;;;26.70;;
15293;SDS011;7748;52.474;13.454;2023-02-08T00:53:00;46.58;;;24.48;;
15293;SDS011;7748;52.474;13.454;2023-02-08T00:55:28;49.17;;;25.50;;
15293;SDS011;7748;52.474;13.454;2023-02-08T00:57:55;38.42;;;23.83;;
15293;SDS011;7748;52.474;13.454;2023-02-08T01:00:23;47.53;;;25.63;;
15293;SDS011;7748;52.474;13.454;2023-02-08T01:02:51;43.95;;;25.40;;
15293;SDS011;7748;52.474;13.454;2023-02-08T01:05:20;53.97;;;26.48;;
15293;SDS011;7748;52.474;13.454;2023-02-08T01:07:48;42.38;;;25.10;;
15293;SDS011;7748;52.474;13.454;2023-02-08T01:10:16;43.75;;;25.85;;
15293;SDS011;7748;52.474;13.454;2023-02-08T01:12:44;45.13;;;26.98;;
15293;SDS011;7748;52.474;13.454;2023-02-08T01:15:12;44.88;;;24.05;;
15293;SDS011;7748;52.474;13.454;2023-02-08T01:17:40;38.38;;;24.63;;
15293;SDS011;7748;52.474;13.454;2023-02-08T01:20:08;44.65;;;24.38;;
15293;SDS011;7748;52.474;13.454;2023-02-08T01:22:38;51.75;;;24.70;;
15293;SDS011;7748;52.474;13.454;2023-02-08T01:25:06;46.08;;;24.50;;
15293;SDS011;7748;52.474;13.454;2023-02-08T01:27:34;40.25;;;25.20;;
15293;SDS011;7748;52.474;13.454;2023-02-08T01:30:02;47.95;;;24.45;;
15293;SDS011;7748;52.474;13.454;2023-02-08T01:32:30;47.80;;;26.30;;
15293;SDS011;7748;52.474;13.454;2023-02-08T01:34:58;52.55;;;27.73;;
15293;SDS011;7748;52.474;13.454;2023-02-08T01:37:26;57.80;;;28.60;;
15293;SDS011;7748;52.474;13.454;2023-02-08T01:39:55;50.33;;;26.60;;
15293;SDS011;7748;52.474;13.454;2023-02-08T01:42:23;58.30;;;29.90;;
15293;SDS011;7748;52.474;13.454;2023-02-08T01:47:54;57.35;;;27.08;;
15293;SDS011;7748;52.474;13.454;2023-02-08T01:50:28;52.58;;;27.73;;
15293;SDS011;7748;52.474;13.454;2023-02-08T01:53:00;50.70;;;27.95;;
15293;SDS011;7748;52.474;13.454;2023-02-08T01:55:30;53.00;;;27.38;;
15293;SDS011;7748;52.474;13.454;2023-02-08T01:58:01;50.83;;;30.25;;
15293;SDS011;7748;52.474;13.454;2023-02-08T02:00:32;47.65;;;26.25;;
15293;SDS011;7748;52.474;13.454;2023-02-08T02:03:00;49.75;;;25.65;;
15293;SDS011;7748;52.474;13.454;2023-02-08T02:05:31;49.22;;;26.48;;
15293;SDS011;7748;52.474;13.454;2023-02-08T02:08:01;50.38;;;25.17;;
15293;SDS011;7748;52.474;13.454;2023-02-08T02:10:32;44.92;;;25.45;;
15293;SDS011;7748;52.474;13.454;2023-02-08T02:13:02;48.67;;;25.15;;
15293;SDS011;7748;52.474;13.454;2023-02-08T02:15:32;50.90;;;27.58;;
15293;SDS011;7748;52.474;13.454;2023-02-08T02:18:00;45.35;;;26.15;;
15293;SDS011;7748;52.474;13.454;2023-02-08T02:20:35;57.83;;;25.55;;
15293;SDS011;7748;52.474;13.454;2023-02-08T02:23:34;44.75;;;23.13;;
15293;SDS011;7748;52.474;13.454;2023-02-08T02:29:38;38.25;;;21.75;;
15293;SDS011;7748;52.474;13.454;2023-02-08T02:32:38;36.38;;;20.63;;
15293;SDS011;7748;52.474;13.454;2023-02-08T02:35:16;39.80;;;20.25;;
15293;SDS011;7748;52.474;13.454;2023-02-08T02:37:53;39.78;;;19.13;;
15293;SDS011;7748;52.474;13.454;2023-02-08T02:40:28;33.38;;;20.05;;
15293;SDS011;7748;52.474;13.454;2023-02-08T02:43:05;35.88;;;20.60;;
15293;SDS011;7748;52.474;13.454;2023-02-08T02:45:58;35.88;;;20.38;;
15293;SDS011;7748;52.474;13.454;2023-02-08T02:48:36;36.78;;;20.02;;
15293;SDS011;7748;52.474;13.454;2023-02-08T02:51:09;35.15;;;20.98;;
15293;SDS011;7748;52.474;13.454;2023-02-08T02:53:43;36.72;;;20.13;;
15293;SDS011;7748;52.474;13.454;2023-02-08T02:56:16;32.03;;;17.80;;
15293;SDS011;7748;52.474;13.454;2023-02-08T02:58:48;36.97;;;20.55;;
15293;SDS011;7748;52.474;13.454;2023-02-08T03:01:20;35.45;;;20.23;;
15293;SDS011;7748;52.474;13.454;2023-02-08T03:03:52;34.33;;;19.85;;
15293;SDS011;7748;52.474;13.454;2023-02-08T03:06:22;35.83;;;19.65;;
15293;SDS011;7748;52.474;13.454;2023-02-08T03:09:07;35.47;;;18.42;;
15293;SDS011;7748;52.474;13.454;2023-02-08T03:11:50;32.80;;;17.85;;
15293;SDS011;7748;52.474;13.454;2023-02-08T03:14:29;26.48;;;15.65;;
15293;SDS011;7748;52.474;13.454;2023-02-08T03:17:10;30.67;;;16.55;;
15293;SDS011;7748;52.474;13.454;2023-02-08T03:19:55;29.17;;;16.13;;
15293;SDS011;7748;52.474;13.454;2023-02-08T03:22:31;32.60;;;17.73;;
15293;SDS011;7748;52.474;13.454;2023-02-08T03:25:06;31.00;;;16.33;;
15293;SDS011;7748;52.474;13.454;2023-02-08T03:27:38;31.00;;;16.50;;
15293;SDS011;7748;52.474;13.454;2023-02-08T03:30:14;23.23;;;15.02;;
15293;SDS011;7748;52.474;13.454;2023-02-08T03:32:45;30.40;;;16.95;;
15293;SDS011;7748;52.474;13.454;2023-02-08T03:35:18;31.17;;;16.77;;
15293;SDS011;7748;52.474;13.454;2023-02-08T03:37:50;30.08;;;15.93;;
15293;SDS011;7748;52.474;13.454;2023-02-08T03:40:28;26.85;;;16.17;;
15293;SDS011;7748;52.474;13.454;2023-02-08T03:43:02;29.40;;;15.27;;
15293;SDS011;7748;52.474;13.454;2023-02-08T03:45:35;26.52;;;15.80;;
15293;SDS011;7748;52.474;13.454;2023-02-08T03:48:06;27.33;;;13.98;;
15293;SDS011;7748;52.474;13.454;2023-02-08T03:50:38;26.63;;;14.18;;
15293;SDS011;7748;52.474;13.454;2023-02-08T03:53:08;28.35;;;15.48;;
15293;SDS011;7748;52.474;13.454;2023-02-08T03:55:37;26.65;;;15.18;;
15293;SDS011;7748;52.474;13.454;2023-02-08T03:58:07;29.50;;;15.02;;
15293;SDS011;7748;52.474;13.454;2023-02-08T04:00:43;25.48;;;14.38;;
15293;SDS011;7748;52.474;13.454;2023-02-08T04:03:16;26.35;;;15.00;;
15293;SDS011;7748;52.474;13.454;2023-02-08T04:05:50;29.17;;;16.27;;
15293;SDS011;7748;52.474;13.454;2023-02-08T04:08:18;27.90;;;15.82;;
15293;SDS011;7748;52.474;13.454;2023-02-08T04:10:47;28.10;;;15.50;;
15293;SDS011;7748;52.474;13.454;2023-02-08T04:13:14;28.95;;;15.50;;
15293;SDS011;7748;52.474;13.454;2023-02-08T04:15:42;25.63;;;16.90;;
15293;SDS011;7748;52.474;13.454;2023-02-08T04:18:10;34.60;;;16.92;;
15293;SDS011;7748;52.474;13.454;2023-02-08T04:20:38;31.55;;;16.92;;
15293;SDS011;7748;52.474;13.454;2023-02-08T04:23:07;30.20;;;16.58;;
15293;SDS011;7748;52.474;13.454;2023-02-08T04:25:35;31.30;;;17.52;;
15293;SDS011;7748;52.474;13.454;2023-02-08T04:28:03;32.80;;;18.55;;
15293;SDS011;7748;52.474;13.454;2023-02-08T04:30:31;32.03;;;17.98;;
15293;SDS011;7748;52.474;13.454;2023-02-08T04:32:59;31.77;;;17.23;;
15293;SDS011;7748;52.474;13.454;2023-02-08T04:35:27;34.58;;;18.52;;
15293;SDS011;7748;52.474;13.454;2023-02-08T04:37:55;42.13;;;19.40;;
15293;SDS011;7748;52.474;13.454;2023-02-08T04:40:24;31.42;;;18.45;;
15293;SDS011;7748;52.474;13.454;2023-02-08T04:42:52;34.33;;;17.10;;
15293;SDS011;7748;52.474;13.454;2023-02-08T04:45:20;36.72;;;17.80;;
15293;SDS011;7748;52.474;13.454;2023-02-08T04:47:47;34.10;;;18.58;;
15293;SDS011;7748;52.474;13.454;2023-02-08T04:50:15;35.08;;;17.95;;
15293;SDS011;7748;52.474;13.454;2023-02-08T04:52:43;33.53;;;19.35;;
15293;SDS011;7748;52.474;13.454;2023-02-08T04:55:11;31.48;;;18.92;;
15293;SDS011;7748;52.474;13.454;2023-02-08T04:57:40;25.27;;;16.08;;
15293;SDS011;7748;52.474;13.454;2023-02-08T05:00:08;35.75;;;16.23;;
15293;SDS011;7748;52.474;13.454;2023-02-08T05:02:37;36.97;;;17.88;;
15293;SDS011;7748;52.474;13.454;2023-02-08T05:05:05;29.90;;;16.17;;
15293;SDS011;7748;52.474;13.454;2023-02-08T05:07:33;31.70;;;16.70;;
15293;SDS011;7748;52.474;13.454;2023-02-08T05:10:01;35.13;;;17.63;;
15293;SDS011;7748;52.474;13.454;2023-02-08T05:12:29;35.58;;;18.25;;
15293;SDS011;7748;52.474;13.454;2023-02-08T05:14:58;32.78;;;17.85;;
15293;SDS011;7748;52.474;13.454;2023-02-08T05:17:26;30.50;;;16.33;;
15293;SDS011;7748;52.474;13.454;2023-02-08T05:19:54;30.35;;;16.42;;
15293;SDS011;7748;52.474;13.454;2023-02-08T05:22:22;31.52;;;15.90;;
15293;SDS011;7748;52.474;13.454;2023-02-08T05:24:49;30.63;;;16.33;;
15293;SDS011;7748;52.474;13.454;2023-02-08T05:27:17;30.13;;;16.80;;
15293;SDS011;7748;52.474;13.454;2023-02-08T05:29:48;32.00;;;17.35;;
15293;SDS011;7748;52.474;13.454;2023-02-08T05:32:18;33.28;;;18.90;;
15293;SDS011;7748;52.474;13.454;2023-02-08T05:34:46;30.08;;;17.27;;
15293;SDS011;7748;52.474;13.454;2023-02-08T05:37:14;32.78;;;18.48;;
15293;SDS011;7748;52.474;13.454;2023-02-08T05:39:42;32.03;;;16.92;;
15293;SDS011;7748;52.474;13.454;2023-02-08T05:42:09;28.50;;;15.52;;
15293;SDS011;7748;52.474;13.454;2023-02-08T05:44:38;33.25;;;18.00;;
15293;SDS011;7748;52.474;13.454;2023-02-08T05:47:05;29.58;;;17.35;;
15293;SDS011;7748;52.474;13.454;2023-02-08T05:49:35;32.50;;;16.58;;
15293;SDS011;7748;52.474;13.454;2023-02-08T05:52:03;33.20;;;17.77;;
15293;SDS011;7748;52.474;13.454;2023-02-08T05:54:31;29.77;;;17.00;;
15293;SDS011;7748;52.474;13.454;2023-02-08T05:56:58;36.45;;;18.00;;
15293;SDS011;7748;52.474;13.454;2023-02-08T05:59:26;35.90;;;18.40;;
15293;SDS011;7748;52.474;13.454;2023-02-08T06:01:54;34.75;;;17.13;;
15293;SDS011;7748;52.474;13.454;2023-02-08T06:04:22;26.30;;;16.65;;
15293;SDS011;7748;52.474;13.454;2023-02-08T06:06:51;28.17;;;15.73;;
15293;SDS011;7748;52.474;13.454;2023-02-08T06:09:19;34.63;;;17.77;;
15293;SDS011;7748;52.474;13.454;2023-02-08T06:11:47;29.48;;;16.50;;
15293;SDS011;7748;52.474;13.454;2023-02-08T06:14:15;31.98;;;17.15;;
15293;SDS011;7748;52.474;13.454;2023-02-08T06:16:42;37.90;;;19.42;;
15293;SDS011;7748;52.474;13.454;2023-02-08T06:19:11;29.95;;;17.23;;
15293;SDS011;7748;52.474;13.454;2023-02-08T06:21:39;35.03;;;17.27;;
15293;SDS011;7748;52.474;13.454;2023-02-08T06:24:08;39.25;;;19.08;;
15293;SDS011;7748;52.474;13.454;2023-02-08T06:26:36;43.03;;;17.58;;
15293;SDS011;7748;52.474;13.454;2023-02-08T06:29:04;32.92;;;18.17;;
15293;SDS011;7748;52.474;13.454;2023-02-08T06:31:32;33.97;;;17.67;;
15293;SDS011;7748;52.474;13.454;2023-02-08T06:33:59;41.13;;;19.70;;
15293;SDS011;7748;52.474;13.454;2023-02-08T06:36:27;39.42;;;18.60;;
15293;SDS011;7748;52.474;13.454;2023-02-08T06:38:55;37.10;;;16.60;;
15293;SDS011;7748;52.474;13.454;2023-02-08T06:41:24;35.88;;;18.20;;
15293;SDS011;7748;52.474;13.454;2023-02-08T06:43:52;36.55;;;17.92;;
15293;SDS011;7748;52.474;13.454;2023-02-08T06:46:20;38.42;;;19.77;;
15293;SDS011;7748;52.474;13.454;2023-02-08T06:48:48;34.55;;;17.27;;
15293;SDS011;7748;52.474;13.454;2023-02-08T06:51:16;31.35;;;17.48;;
15293;SDS011;7748;52.474;13.454;2023-02-08T06:53:44;33.47;;;17.52;;
15293;SDS011;7748;52.474;13.454;2023-02-08T06:56:12;35.63;;;17.75;;
15293;SDS011;7748;52.474;13.454;2023-02-08T06:58:41;37.97;;;18.00;;
15293;SDS011;7748;52.474;13.454;2023-02-08T07:01:10;34.17;;;17.58;;
15293;SDS011;7748;52.474;13.454;2023-02-08T07:03:38;40.78;;;18.45;;
15293;SDS011;7748;52.474;13.454;2023-02-08T07:06:10;39.40;;;18.40;;
15293;SDS011;7748;52.474;13.454;2023-02-08T07:08:39;36.78;;;17.73;;
15293;SDS011;7748;52.474;13.454;2023-02-08T07:11:07;34.33;;;18.52;;
15293;SDS011;7748;52.474;13.454;2023-02-08T07:13:36;49.80;;;26.63;;
15293;SDS011;7748;52.474;13.454;2023-02-08T07:16:06;36.78;;;19.10;;
15293;SDS011;7748;52.474;13.454;2023-02-08T07:18:35;38.10;;;19.63;;
15293;SDS011;7748;52.474;13.454;2023-02-08T07:21:03;32.83;;;17.33;;
15293;SDS011;7748;52.474;13.454;2023-02-08T07:23:31;36.13;;;17.83;;
15293;SDS011;7748;52.474;13.454;2023-02-08T07:26:00;45.00;;;21.20;;
15293;SDS011;7748;52.474;13.454;2023-02-08T07:28:29;33.67;;;17.98;;
15293;SDS011;7748;52.474;13.454;2023-02-08T07:30:57;39.70;;;20.13;;
15293;SDS011;7748;52.474;13.454;2023-02-08T07:33:27;36.55;;;20.05;;
15293;SDS011;7748;52.474;13.454;2023-02-08T07:35:54;38.78;;;20.95;;
15293;SDS011;7748;52.474;13.454;2023-02-08T07:38:22;39.92;;;20.60;;
15293;SDS011;7748;52.474;13.454;2023-02-08T07:40:50;43.03;;;22.88;;
15293;SDS011;7748;52.474;13.454;2023-02-08T07:43:18;40.90;;;19.45;;
15293;SDS011;7748;52.474;13.454;2023-02-08T07:45:45;35.47;;;17.52;;
15293;SDS011;7748;52.474;13.454;2023-02-08T07:48:13;35.50;;;18.25;;
15293;SDS011;7748;52.474;13.454;2023-02-08T07:50:43;37.15;;;19.27;;
15293;SDS011;7748;52.474;13.454;2023-02-08T07:53:11;35.30;;;19.55;;
15293;SDS011;7748;52.474;13.454;2023-02-08T07:55:38;40.80;;;18.77;;
15293;SDS011;7748;52.474;13.454;2023-02-08T07:58:06;36.70;;;19.20;;
15293;SDS011;7748;52.474;13.454;2023-02-08T08:00:34;33.28;;;18.13;;
15293;SDS011;7748;52.474;13.454;2023-02-08T08:03:02;36.05;;;18.13;;
15293;SDS011;7748;52.474;13.454;2023-02-08T08:05:30;36.78;;;18.60;;
15293;SDS011;7748;52.474;13.454;2023-02-08T08:07:59;38.70;;;19.63;;
15293;SDS011;7748;52.474;13.454;2023-02-08T08:10:27;40.97;;;20.27;;
15293;SDS011;7748;52.474;13.454;2023-02-08T08:12:55;36.38;;;18.15;;
15293;SDS011;7748;52.474;13.454;2023-02-08T08:15:23;38.08;;;18.88;;
15293;SDS011;7748;52.474;13.454;2023-02-08T08:17:50;35.67;;;17.20;;
15293;SDS011;7748;52.474;13.454;2023-02-08T08:20:18;35.20;;;17.77;;
15293;SDS011;7748;52.474;13.454;2023-02-08T08:22:47;37.13;;;19.30;;
15293;SDS011;7748;52.474;13.454;2023-02-08T08:25:17;35.58;;;18.50;;
15293;SDS011;7748;52.474;13.454;2023-02-08T08:27:45;43.88;;;19.08;;
15293;SDS011;7748;52.474;13.454;2023-02-08T08:30:14;39.78;;;20.60;;
15293;SDS011;7748;52.474;13.454;2023-02-08T08:32:43;34.50;;;18.38;;
15293;SDS011;7748;52.474;13.454;2023-02-08T08:35:10;37.47;;;19.38;;
15293;SDS011;7748;52.474;13.454;2023-02-08T08:37:38;29.95;;;17.23;;
15293;SDS011;7748;52.474;13.454;2023-02-08T08:40:07;42.70;;;18.70;;
15293;SDS011;7748;52.474;13.454;2023-02-08T08:42:37;34.85;;;19.48;;
15293;SDS011;7748;52.474;13.454;2023-02-08T08:45:06;38.13;;;20.08;;
15293;SDS011;7748;52.474;13.454;2023-02-08T08:47:35;38.67;;;20.83;;
15293;SDS011;7748;52.474;13.454;2023-02-08T08:50:03;35.78;;;18.63;;
15293;SDS011;7748;52.474;13.454;2023-02-08T08:52:31;35.42;;;18.95;;
15293;SDS011;7748;52.474;13.454;2023-02-08T08:54:59;35.13;;;19.30;;
15293;SDS011;7748;52.474;13.454;2023-02-08T08:57:27;39.28;;;19.52;;
15293;SDS011;7748;52.474;13.454;2023-02-08T08:59:56;45.83;;;21.95;;
15293;SDS011;7748;52.474;13.454;2023-02-08T09:02:24;38.10;;;20.00;;
15293;SDS011;7748;52.474;13.454;2023-02-08T09:04:52;35.75;;;20.80;;
15293;SDS011;7748;52.474;13.454;2023-02-08T09:07:19;42.72;;;21.63;;
15293;SDS011;7748;52.474;13.454;2023-02-08T09:09:47;42.95;;;20.38;;
15293;SDS011;7748;52.474;13.454;2023-02-08T09:12:15;45.88;;;22.25;;
15293;SDS011;7748;52.474;13.454;2023-02-08T09:14:43;46.90;;;22.90;;
15293;SDS011;7748;52.474;13.454;2023-02-08T09:17:15;43.47;;;21.65;;
15293;SDS011;7748;52.474;13.454;2023-02-08T09:19:43;41.10;;;22.33;;
15293;SDS011;7748;52.474;13.454;2023-02-08T09:22:12;39.85;;;20.88;;
15293;SDS011;7748;52.474;13.454;2023-02-08T09:24:40;43.10;;;21.35;;
15293;SDS011;7748;52.474;13.454;2023-02-08T09:27:08;44.35;;;22.00;;
15293;SDS011;7748;52.474;13.454;2023-02-08T09:29:35;47.67;;;20.60;;
15293;SDS011;7748;52.474;13.454;2023-02-08T09:32:03;43.67;;;19.27;;
15293;SDS011;7748;52.474;13.454;2023-02-08T09:34:35;42.53;;;21.98;;
15293;SDS011;7748;52.474;13.454;2023-02-08T09:37:03;39.05;;;20.38;;
15293;SDS011;7748;52.474;13.454;2023-02-08T09:39:32;42.45;;;21.75;;
15293;SDS011;7748;52.474;13.454;2023-02-08T09:42:04;41.25;;;22.70;;
15293;SDS011;7748;52.474;13.454;2023-02-08T09:44:54;44.03;;;22.88;;
15293;SDS011;7748;52.474;13.454;2023-02-08T09:47:32;38.88;;;21.25;;
15293;SDS011;7748;52.474;13.454;2023-02-08T09:50:04;44.22;;;21.58;;
15293;SDS011;7748;52.474;13.454;2023-02-08T09:52:40;46.78;;;22.33;;
15293;SDS011;7748;52.474;13.454;2023-02-08T09:55:20;44.13;;;23.10;;
15293;SDS011;7748;52.474;13.454;2023-02-08T09:57:52;44.72;;;22.70;;
15293;SDS011;7748;52.474;13.454;2023-02-08T10:00:26;43.90;;;21.65;;
15293;SDS011;7748;52.474;13.454;2023-02-08T10:03:00;38.80;;;22.50;;
15293;SDS011;7748;52.474;13.454;2023-02-08T10:05:31;44.40;;;22.23;;
15293;SDS011;7748;52.474;13.454;2023-02-08T10:08:00;43.50;;;20.92;;
15293;SDS011;7748;52.474;13.454;2023-02-08T10:10:32;43.63;;;21.40;;
15293;SDS011;7748;52.474;13.454;2023-02-08T10:13:13;48.15;;;21.83;;
15293;SDS011;7748;52.474;13.454;2023-02-08T10:16:08;46.97;;;21.92;;
15293;SDS011;7748;52.474;13.454;2023-02-08T10:18:47;50.13;;;22.90;;
15293;SDS011;7748;52.474;13.454;2023-02-08T10:21:26;47.30;;;23.77;;
15293;SDS011;7748;52.474;13.454;2023-02-08T10:24:08;38.72;;;19.55;;
15293;SDS011;7748;52.474;13.454;2023-02-08T10:26:52;42.38;;;21.58;;
15293;SDS011;7748;52.474;13.454;2023-02-08T10:29:31;48.63;;;22.52;;
15293;SDS011;7748;52.474;13.454;2023-02-08T10:35:08;48.92;;;22.13;;
15293;SDS011;7748;52.474;13.454;2023-02-08T10:37:40;47.75;;;23.10;;
15293;SDS011;7748;52.474;13.454;2023-02-08T10:40:18;48.35;;;23.83;;
15293;SDS011;7748;52.474;13.454;2023-02-08T10:42:57;37.00;;;22.05;;
15293;SDS011;7748;52.474;13.454;2023-02-08T10:45:40;46.35;;;21.92;;
15293;SDS011;7748;52.474;13.454;2023-02-08T10:48:16;40.28;;;21.00;;
15293;SDS011;7748;52.474;13.454;2023-02-08T10:50:57;42.10;;;21.65;;
15293;SDS011;7748;52.474;13.454;2023-02-08T10:53:28;43.20;;;20.95;;
15293;SDS011;7748;52.474;13.454;2023-02-08T10:55:56;39.70;;;20.90;;
15293;SDS011;7748;52.474;13.454;2023-02-08T10:58:24;38.83;;;20.60;;
15293;SDS011;7748;52.474;13.454;2023-02-08T11:00:52;43.00;;;20.42;;
15293;SDS011;7748;52.474;13.454;2023-02-08T11:03:24;48.97;;;19.75;;
15293;SDS011;7748;52.474;13.454;2023-02-08T11:05:53;37.55;;;20.08;;
15293;SDS011;7748;52.474;13.454;2023-02-08T11:08:22;45.47;;;22.20;;
15293;SDS011;7748;52.474;13.454;2023-02-08T11:10:58;36.78;;;19.70;;
15293;SDS011;7748;52.474;13.454;2023-02-08T11:13:32;35.67;;;20.52;;
15293;SDS011;7748;52.474;13.454;2023-02-08T11:16:03;37.45;;;20.27;;
15293;SDS011;7748;52.474;13.454;2023-02-08T11:18:32;37.58;;;20.60;;
15293;SDS011;7748;52.474;13.454;2023-02-08T11:21:03;42.80;;;20.60;;
15293;SDS011;7748;52.474;13.454;2023-02-08T11:23:34;40.65;;;20.92;;
15293;SDS011;7748;52.474;13.454;2023-02-08T11:26:15;47.63;;;20.15;;
15293;SDS011;7748;52.474;13.454;2023-02-08T11:28:57;36.85;;;20.88;;
15293;SDS011;7748;52.474;13.454;2023-02-08T11:31:26;37.20;;;19.50;;
15293;SDS011;7748;52.474;13.454;2023-02-08T11:33:59;40.97;;;21.00;;
15293;SDS011;7748;52.474;13.454;2023-02-08T11:36:28;46.55;;;21.67;;
15293;SDS011;7748;52.474;13.454;2023-02-08T11:38:59;39.97;;;20.40;;
15293;SDS011;7748;52.474;13.454;2023-02-08T11:41:30;36.13;;;20.15;;
15293;SDS011;7748;52.474;13.454;2023-02-08T11:44:00;39.15;;;19.65;;
15293;SDS011;7748;52.474;13.454;2023-02-08T11:46:31;36.92;;;19.55;;
15293;SDS011;7748;52.474;13.454;2023-02-08T11:49:01;38.87;;;20.13;;
15293;SDS011;7748;52.474;13.454;2023-02-08T11:51:30;35.23;;;17.93;;
15293;SDS011;7748;52.474;13.454;2023-02-08T11:54:00;34.97;;;17.83;;
15293;SDS011;7748;52.474;13.454;2023-02-08T11:56:31;39.33;;;19.27;;
15293;SDS011;7748;52.474;13.454;2023-02-08T11:59:01;34.33;;;19.47;;
15293;SDS011;7748;52.474;13.454;2023-02-08T12:01:43;40.00;;;19.92;;
15293;SDS011;7748;52.474;13.454;2023-02-08T12:04:12;36.38;;;18.20;;
15293;SDS011;7748;52.474;13.454;2023-02-08T12:06:48;36.33;;;18.83;;
15293;SDS011;7748;52.474;13.454;2023-02-08T12:09:34;34.88;;;19.02;;
15293;SDS011;7748;52.474;13.454;2023-02-08T12:12:22;42.40;;;21.30;;
15293;SDS011;7748;52.474;13.454;2023-02-08T12:14:58;46.42;;;21.45;;
15293;SDS011;7748;52.474;13.454;2023-02-08T12:17:40;41.87;;;21.27;;
15293;SDS011;7748;52.474;13.454;2023-02-08T12:20:33;45.80;;;19.03;;
15293;SDS011;7748;52.474;13.454;2023-02-08T12:23:13;36.93;;;19.77;;
15293;SDS011;7748;52.474;13.454;2023-02-08T12:26:04;34.72;;;19.27;;
15293;SDS011;7748;52.474;13.454;2023-02-08T12:28:47;39.13;;;20.40;;
15293;SDS011;7748;52.474;13.454;2023-02-08T12:31:31;44.00;;;21.67;;
15293;SDS011;7748;52.474;13.454;2023-02-08T12:34:14;42.60;;;20.47;;
15293;SDS011;7748;52.474;13.454;2023-02-08T12:39:57;33.37;;;17.17;;
15293;SDS011;7748;52.474;13.454;2023-02-08T12:42:56;35.00;;;18.63;;
15293;SDS011;7748;52.474;13.454;2023-02-08T12:48:29;42.10;;;21.00;;
15293;SDS011;7748;52.474;13.454;2023-02-08T12:51:15;39.63;;;20.83;;
15293;SDS011;7748;52.474;13.454;2023-02-08T12:53:51;39.77;;;19.83;;
15293;SDS011;7748;52.474;13.454;2023-02-08T12:56:25;34.87;;;18.47;;
15293;SDS011;7748;52.474;13.454;2023-02-08T12:58:59;37.13;;;21.10;;
15293;SDS011;7748;52.474;13.454;2023-02-08T13:01:41;40.57;;;19.17;;
15293;SDS011;7748;52.474;13.454;2023-02-08T13:04:13;37.63;;;19.20;;
15293;SDS011;7748;52.474;13.454;2023-02-08T13:06:45;37.43;;;19.53;;
15293;SDS011;7748;52.474;13.454;2023-02-08T13:09:16;33.53;;;18.00;;
15293;SDS011;7748;52.474;13.454;2023-02-08T13:11:55;36.03;;;18.40;;
15293;SDS011;7748;52.474;13.454;2023-02-08T13:14:27;43.20;;;20.03;;
15293;SDS011;7748;52.474;13.454;2023-02-08T13:17:08;39.53;;;19.07;;
15293;SDS011;7748;52.474;13.454;2023-02-08T13:19:46;40.97;;;20.87;;
15293;SDS011;7748;52.474;13.454;2023-02-08T13:22:26;33.00;;;17.67;;
15293;SDS011;7748;52.474;13.454;2023-02-08T13:24:59;43.97;;;20.13;;
15293;SDS011;7748;52.474;13.454;2023-02-08T13:27:34;46.73;;;20.77;;
15293;SDS011;7748;52.474;13.454;2023-02-08T13:30:02;54.23;;;21.37;;
15293;SDS011;7748;52.474;13.454;2023-02-08T13:32:35;43.70;;;19.83;;
15293;SDS011;7748;52.474;13.454;2023-02-08T13:35:11;48.40;;;19.23;;
15293;SDS011;7748;52.474;13.454;2023-02-08T13:37:48;33.40;;;19.50;;
15293;SDS011;7748;52.474;13.454;2023-02-08T13:40:19;48.73;;;19.80;;
15293;SDS011;7748;52.474;13.454;2023-02-08T13:42:55;49.03;;;21.37;;
15293;SDS011;7748;52.474;13.454;2023-02-08T13:45:27;40.67;;;19.37;;
15293;SDS011;7748;52.474;13.454;2023-02-08T13:47:59;40.63;;;20.10;;
15293;SDS011;7748;52.474;13.454;2023-02-08T13:50:45;45.10;;;18.87;;
15293;SDS011;7748;52.474;13.454;2023-02-08T13:53:15;33.70;;;17.40;;
15293;SDS011;7748;52.474;13.454;2023-02-08T13:55:51;37.50;;;19.93;;
15293;SDS011;7748;52.474;13.454;2023-02-08T13:58:34;28.80;;;18.77;;
15293;SDS011;7748;52.474;13.454;2023-02-08T14:01:21;39.27;;;20.07;;
15293;SDS011;7748;52.474;13.454;2023-02-08T14:07:00;41.30;;;20.17;;
15293;SDS011;7748;52.474;13.454;2023-02-08T14:09:38;44.20;;;18.83;;
15293;SDS011;7748;52.474;13.454;2023-02-08T14:12:14;41.20;;;19.40;;
15293;SDS011;7748;52.474;13.454;2023-02-08T14:17:55;31.03;;;15.97;;
15293;SDS011;7748;52.474;13.454;2023-02-08T14:20:27;34.70;;;17.47;;
15293;SDS011;7748;52.474;13.454;2023-02-08T14:23:00;33.83;;;17.93;;
15293;SDS011;7748;52.474;13.454;2023-02-08T14:25:37;48.47;;;20.87;;
15293;SDS011;7748;52.474;13.454;2023-02-08T14:28:20;35.57;;;20.17;;
15293;SDS011;7748;52.474;13.454;2023-02-08T14:30:53;38.90;;;18.47;;
15293;SDS011;7748;52.474;13.454;2023-02-08T14:33:25;35.87;;;18.10;;
15293;SDS011;7748;52.474;13.454;2023-02-08T14:35:55;40.60;;;19.33;;
15293;SDS011;7748;52.474;13.454;2023-02-08T14:38:47;42.47;;;20.47;;
15293;SDS011;7748;52.474;13.454;2023-02-08T14:50:27;43.03;;;21.23;;
15293;SDS011;7748;52.474;13.454;2023-02-08T14:53:00;49.50;;;20.07;;
15293;SDS011;7748;52.474;13.454;2023-02-08T14:55:38;41.27;;;19.60;;
15293;SDS011;7748;52.474;13.454;2023-02-08T14:58:11;39.63;;;19.57;;
15293;SDS011;7748;52.474;13.454;2023-02-08T15:00:49;37.97;;;18.53;;
15293;SDS011;7748;52.474;13.454;2023-02-08T15:03:18;33.93;;;18.03;;
15293;SDS011;7748;52.474;13.454;2023-02-08T15:05:55;38.97;;;18.80;;
15293;SDS011;7748;52.474;13.454;2023-02-08T15:08:38;37.80;;;17.77;;
15293;SDS011;7748;52.474;13.454;2023-02-08T15:11:16;37.07;;;18.57;;
15293;SDS011;7748;52.474;13.454;2023-02-08T15:13:48;39.17;;;18.07;;
15293;SDS011;7748;52.474;13.454;2023-02-08T15:16:17;36.50;;;17.23;;
15293;SDS011;7748;52.474;13.454;2023-02-08T15:18:45;40.53;;;17.70;;